TimePST,TemperatureF,Dew PointF,Humidity,Sea Level PressureIn,VisibilityMPH,Wind Direction,Wind SpeedMPH,Gust SpeedMPH,PrecipitationIn,Events,Conditions,WindDirDegrees,DateUTC
12:12 AM,30.2,28.4,93,30.25,8.0,Calm,Calm,-,0.00,Rain,Light Freezing Rain,0,2012-11-13 08:12:00
12:40 AM,30.2,28.4,93,30.25,10.0,Calm,Calm,-,0.00,Rain,Light Freezing Rain,0,2012-11-13 08:40:00
12:56 AM,30.9,28.9,92,30.33,10.0,Calm,Calm,-,0.00,Rain,Light Freezing Rain,0,2012-11-13 08:56:00
1:03 AM,30.2,28.4,93,30.25,10.0,Calm,Calm,-,0.00,Rain,Light Freezing Rain,0,2012-11-13 09:03:00
1:15 AM,30.2,28.4,93,30.25,10.0,Calm,Calm,-,0.00,Rain,Light Freezing Rain,0,2012-11-13 09:15:00
1:56 AM,30.9,28.9,92,30.34,10.0,Calm,Calm,-,0.00,,Overcast,0,2012-11-13 09:56:00
2:32 AM,30.2,28.4,93,30.25,10.0,Calm,Calm,-,0.00,,Overcast,0,2012-11-13 10:32:00
2:56 AM,30.9,28.9,92,30.32,10.0,Calm,Calm,-,0.00,,Overcast,0,2012-11-13 10:56:00
3:56 AM,30.9,28.9,92,30.32,10.0,Calm,Calm,-,N/A,,Overcast,0,2012-11-13 11:56:00
4:56 AM,30.9,30.0,96,30.31,10.0,Calm,Calm,-,N/A,,Overcast,0,2012-11-13 12:56:00
5:56 AM,32.0,30.0,92,30.30,10.0,Calm,Calm,-,N/A,,Overcast,0,2012-11-13 13:56:00
6:56 AM,33.1,30.9,92,30.31,10.0,Calm,Calm,-,N/A,,Overcast,0,2012-11-13 14:56:00
7:56 AM,33.1,30.9,92,30.31,10.0,Calm,Calm,-,N/A,,Overcast,0,2012-11-13 15:56:00
8:56 AM,34.0,30.9,89,30.29,10.0,Calm,Calm,-,N/A,,Overcast,0,2012-11-13 16:56:00
9:56 AM,35.1,30.9,85,30.29,10.0,Calm,Calm,-,N/A,,Overcast,0,2012-11-13 17:56:00
10:56 AM,36.0,32.0,86,30.27,10.0,Variable,3.5,-,N/A,,Overcast,0,2012-11-13 18:56:00
11:56 AM,37.0,33.1,86,30.25,10.0,Calm,Calm,-,N/A,,Scattered Clouds,0,2012-11-13 19:56:00
12:56 PM,37.0,34.0,89,30.24,10.0,Calm,Calm,-,N/A,,Clear,0,2012-11-13 20:56:00
1:56 PM,37.0,33.1,86,30.23,10.0,Calm,Calm,-,N/A,,Mostly Cloudy,0,2012-11-13 21:56:00
2:56 PM,35.1,33.1,92,30.22,9.0,Calm,Calm,-,N/A,,Mostly Cloudy,0,2012-11-13 22:56:00
3:56 PM,35.1,32.0,89,30.22,6.0,Calm,Calm,-,0.00,Rain,Light Rain,0,2012-11-13 23:56:00
4:56 PM,34.0,33.1,96,30.20,6.0,Calm,Calm,-,0.01,,Overcast,0,2012-11-14 00:56:00
5:56 PM,35.1,33.1,92,30.20,8.0,Calm,Calm,-,0.00,Rain,Light Rain,0,2012-11-14 01:56:00
6:56 PM,34.0,33.1,96,30.20,7.0,Calm,Calm,-,0.00,,Overcast,0,2012-11-14 02:56:00
7:56 PM,34.0,33.1,96,30.20,6.0,Calm,Calm,-,N/A,,Overcast,0,2012-11-14 03:56:00
8:56 PM,34.0,32.0,92,30.21,8.0,Calm,Calm,-,N/A,,Mostly Cloudy,0,2012-11-14 04:56:00
9:56 PM,34.0,32.0,92,30.20,9.0,Calm,Calm,-,N/A,,Overcast,0,2012-11-14 05:56:00
10:56 PM,33.1,33.1,100,30.21,5.0,Calm,Calm,-,N/A,,Overcast,0,2012-11-14 06:56:00
11:56 PM,33.1,32.0,96,30.22,4.0,Calm,Calm,-,0.01,,Overcast,0,2012-11-14 07:56:00